sensor_id;sensor_type;location;lat;lon;timestamp;P1;durP1;ratioP1;P2;durP2;ratioP2
73550;SDS011;61816;53.582;10.096;2023-08-07T00:01:31;5.55;;;3.10;;
73550;SDS011;61816;53.582;10.096;2023-08-07T00:03:56;7.65;;;3.17;;
73550;SDS011;61816;53.582;10.096;2023-08-07T00:06:21;8.15;;;2.55;;
73550;SDS011;61816;53.582;10.096;2023-08-07T00:08:46;13.23;;;2.60;;
73550;SDS011;61816;53.582;10.096;2023-08-07T00:11:12;3.58;;;2.38;;
73550;SDS011;61816;53.582;10.096;2023-08-07T00:13:37;13.23;;;2.40;;
73550;SDS011;61816;53.582;10.096;2023-08-07T00:16:06;11.50;;;3.00;;
73550;SDS011;61816;53.582;10.096;2023-08-07T00:18:31;9.25;;;3.05;;
73550;SDS011;61816;53.582;10.096;2023-08-07T00:20:56;8.38;;;3.00;;
73550;SDS011;61816;53.582;10.096;2023-08-07T00:23:22;8.68;;;2.67;;
73550;SDS011;61816;53.582;10.096;2023-08-07T00:25:47;11.27;;;2.75;;
73550;SDS011;61816;53.582;10.096;2023-08-07T00:28:13;4.00;;;2.35;;
73550;SDS011;61816;53.582;10.096;2023-08-07T00:30:38;6.60;;;2.30;;
73550;SDS011;61816;53.582;10.096;2023-08-07T00:33:03;8.80;;;2.20;;
73550;SDS011;61816;53.582;10.096;2023-08-07T00:35:29;9.07;;;2.75;;
73550;SDS011;61816;53.582;10.096;2023-08-07T00:37:54;6.68;;;2.40;;
73550;SDS011;61816;53.582;10.096;2023-08-07T00:40:19;6.13;;;2.80;;
73550;SDS011;61816;53.582;10.096;2023-08-07T00:42:44;6.35;;;2.80;;
73550;SDS011;61816;53.582;10.096;2023-08-07T00:45:10;7.32;;;2.65;;
73550;SDS011;61816;53.582;10.096;2023-08-07T00:47:35;6.50;;;2.45;;
73550;SDS011;61816;53.582;10.096;2023-08-07T00:50:02;5.50;;;2.55;;
73550;SDS011;61816;53.582;10.096;2023-08-07T00:52:30;9.30;;;2.67;;
73550;SDS011;61816;53.582;10.096;2023-08-07T00:54:57;3.17;;;2.17;;
73550;SDS011;61816;53.582;10.096;2023-08-07T00:57:22;7.95;;;2.35;;
73550;SDS011;61816;53.582;10.096;2023-08-07T00:59:49;4.80;;;2.22;;
73550;SDS011;61816;53.582;10.096;2023-08-07T01:02:15;7.25;;;2.05;;
73550;SDS011;61816;53.582;10.096;2023-08-07T01:04:40;12.10;;;2.72;;
73550;SDS011;61816;53.582;10.096;2023-08-07T01:07:06;8.73;;;2.40;;
73550;SDS011;61816;53.582;10.096;2023-08-07T01:09:31;9.05;;;2.00;;
73550;SDS011;61816;53.582;10.096;2023-08-07T01:12:17;12.00;;;2.70;;
73550;SDS011;61816;53.582;10.096;2023-08-07T01:14:52;5.97;;;2.28;;
73550;SDS011;61816;53.582;10.096;2023-08-07T01:17:23;5.07;;;2.50;;
73550;SDS011;61816;53.582;10.096;2023-08-07T01:19:50;8.95;;;2.17;;
73550;SDS011;61816;53.582;10.096;2023-08-07T01:22:17;8.18;;;2.40;;
73550;SDS011;61816;53.582;10.096;2023-08-07T01:24:44;9.70;;;2.72;;
73550;SDS011;61816;53.582;10.096;2023-08-07T01:29:51;7.05;;;2.83;;
73550;SDS011;61816;53.582;10.096;2023-08-07T01:35:30;6.65;;;2.50;;
73550;SDS011;61816;53.582;10.096;2023-08-07T01:38:00;6.90;;;2.50;;
73550;SDS011;61816;53.582;10.096;2023-08-07T01:40:28;4.00;;;2.45;;
73550;SDS011;61816;53.582;10.096;2023-08-07T01:42:54;5.55;;;2.70;;
73550;SDS011;61816;53.582;10.096;2023-08-07T01:45:26;7.55;;;2.75;;
73550;SDS011;61816;53.582;10.096;2023-08-07T01:47:54;7.78;;;2.40;;
73550;SDS011;61816;53.582;10.096;2023-08-07T01:50:20;6.40;;;3.20;;
73550;SDS011;61816;53.582;10.096;2023-08-07T01:52:46;8.75;;;2.47;;
73550;SDS011;61816;53.582;10.096;2023-08-07T01:55:15;6.57;;;2.50;;
73550;SDS011;61816;53.582;10.096;2023-08-07T01:57:41;8.98;;;2.50;;
73550;SDS011;61816;53.582;10.096;2023-08-07T02:00:07;8.80;;;2.45;;
73550;SDS011;61816;53.582;10.096;2023-08-07T02:02:36;12.57;;;2.80;;
73550;SDS011;61816;53.582;10.096;2023-08-07T02:05:02;7.82;;;2.42;;
73550;SDS011;61816;53.582;10.096;2023-08-07T02:07:28;9.65;;;2.70;;
73550;SDS011;61816;53.582;10.096;2023-08-07T02:09:54;7.85;;;2.38;;
73550;SDS011;61816;53.582;10.096;2023-08-07T02:12:19;10.00;;;2.67;;
73550;SDS011;61816;53.582;10.096;2023-08-07T02:14:45;15.60;;;2.78;;
73550;SDS011;61816;53.582;10.096;2023-08-07T02:17:11;6.95;;;2.33;;
73550;SDS011;61816;53.582;10.096;2023-08-07T02:19:36;5.70;;;2.25;;
73550;SDS011;61816;53.582;10.096;2023-08-07T02:22:02;13.30;;;3.20;;
73550;SDS011;61816;53.582;10.096;2023-08-07T02:24:27;9.98;;;2.58;;
73550;SDS011;61816;53.582;10.096;2023-08-07T02:26:53;7.55;;;2.35;;
73550;SDS011;61816;53.582;10.096;2023-08-07T02:29:18;3.80;;;2.13;;
73550;SDS011;61816;53.582;10.096;2023-08-07T02:31:43;8.55;;;2.65;;
73550;SDS011;61816;53.582;10.096;2023-08-07T02:34:09;8.20;;;3.05;;
73550;SDS011;61816;53.582;10.096;2023-08-07T02:36:34;8.40;;;2.80;;
73550;SDS011;61816;53.582;10.096;2023-08-07T02:39:00;8.80;;;3.33;;
73550;SDS011;61816;53.582;10.096;2023-08-07T02:41:25;7.10;;;2.60;;
73550;SDS011;61816;53.582;10.096;2023-08-07T02:43:50;11.73;;;3.03;;
73550;SDS011;61816;53.582;10.096;2023-08-07T02:46:16;5.60;;;2.22;;
73550;SDS011;61816;53.582;10.096;2023-08-07T02:48:42;7.68;;;2.42;;
73550;SDS011;61816;53.582;10.096;2023-08-07T02:51:09;9.63;;;2.75;;
73550;SDS011;61816;53.582;10.096;2023-08-07T02:53:34;6.07;;;2.35;;
73550;SDS011;61816;53.582;10.096;2023-08-07T02:56:00;6.63;;;2.63;;
73550;SDS011;61816;53.582;10.096;2023-08-07T02:58:25;10.70;;;2.45;;
73550;SDS011;61816;53.582;10.096;2023-08-07T03:00:50;8.60;;;2.83;;
73550;SDS011;61816;53.582;10.096;2023-08-07T03:03:16;5.10;;;2.53;;
73550;SDS011;61816;53.582;10.096;2023-08-07T03:05:48;8.18;;;2.50;;
73550;SDS011;61816;53.582;10.096;2023-08-07T03:08:15;7.03;;;2.50;;
73550;SDS011;61816;53.582;10.096;2023-08-07T03:10:40;13.73;;;2.20;;
73550;SDS011;61816;53.582;10.096;2023-08-07T03:13:05;7.28;;;2.58;;
73550;SDS011;61816;53.582;10.096;2023-08-07T03:15:31;12.82;;;2.55;;
73550;SDS011;61816;53.582;10.096;2023-08-07T03:17:56;15.05;;;2.78;;
73550;SDS011;61816;53.582;10.096;2023-08-07T03:20:22;5.13;;;2.60;;
73550;SDS011;61816;53.582;10.096;2023-08-07T03:22:47;6.63;;;1.80;;
73550;SDS011;61816;53.582;10.096;2023-08-07T03:25:12;11.70;;;2.10;;
73550;SDS011;61816;53.582;10.096;2023-08-07T03:27:38;6.03;;;2.05;;
73550;SDS011;61816;53.582;10.096;2023-08-07T03:30:03;6.50;;;2.10;;
73550;SDS011;61816;53.582;10.096;2023-08-07T03:32:29;6.60;;;2.40;;
73550;SDS011;61816;53.582;10.096;2023-08-07T03:34:54;9.02;;;3.00;;
73550;SDS011;61816;53.582;10.096;2023-08-07T03:37:20;8.85;;;2.30;;
73550;SDS011;61816;53.582;10.096;2023-08-07T03:39:45;8.88;;;2.50;;
73550;SDS011;61816;53.582;10.096;2023-08-07T03:42:13;6.63;;;1.90;;
73550;SDS011;61816;53.582;10.096;2023-08-07T03:44:39;9.10;;;2.30;;
73550;SDS011;61816;53.582;10.096;2023-08-07T03:47:05;5.38;;;2.10;;
73550;SDS011;61816;53.582;10.096;2023-08-07T03:49:30;6.18;;;2.47;;
73550;SDS011;61816;53.582;10.096;2023-08-07T03:51:56;10.80;;;2.75;;
73550;SDS011;61816;53.582;10.096;2023-08-07T03:54:24;5.20;;;2.30;;
73550;SDS011;61816;53.582;10.096;2023-08-07T03:56:49;10.13;;;2.95;;
73550;SDS011;61816;53.582;10.096;2023-08-07T03:59:16;6.80;;;2.47;;
73550;SDS011;61816;53.582;10.096;2023-08-07T04:01:42;10.70;;;2.33;;
73550;SDS011;61816;53.582;10.096;2023-08-07T04:04:07;13.90;;;3.03;;
73550;SDS011;61816;53.582;10.096;2023-08-07T04:06:33;16.10;;;3.13;;
73550;SDS011;61816;53.582;10.096;2023-08-07T04:08:58;10.95;;;2.75;;
73550;SDS011;61816;53.582;10.096;2023-08-07T04:11:24;21.30;;;2.50;;
73550;SDS011;61816;53.582;10.096;2023-08-07T04:13:49;8.57;;;3.10;;
73550;SDS011;61816;53.582;10.096;2023-08-07T04:16:15;10.18;;;3.20;;
73550;SDS011;61816;53.582;10.096;2023-08-07T04:18:41;8.85;;;3.45;;
73550;SDS011;61816;53.582;10.096;2023-08-07T04:21:07;17.95;;;3.03;;
73550;SDS011;61816;53.582;10.096;2023-08-07T04:23:33;14.27;;;3.58;;
73550;SDS011;61816;53.582;10.096;2023-08-07T04:25:58;9.80;;;2.75;;
73550;SDS011;61816;53.582;10.096;2023-08-07T04:28:24;7.18;;;2.60;;
73550;SDS011;61816;53.582;10.096;2023-08-07T04:30:49;20.88;;;3.15;;
73550;SDS011;61816;53.582;10.096;2023-08-07T04:33:16;11.30;;;2.97;;
73550;SDS011;61816;53.582;10.096;2023-08-07T04:35:44;18.33;;;3.97;;
73550;SDS011;61816;53.582;10.096;2023-08-07T04:38:11;15.30;;;3.58;;
73550;SDS011;61816;53.582;10.096;2023-08-07T04:40:37;18.23;;;3.65;;
73550;SDS011;61816;53.582;10.096;2023-08-07T04:43:03;10.15;;;3.08;;
73550;SDS011;61816;53.582;10.096;2023-08-07T04:45:28;9.82;;;3.08;;
73550;SDS011;61816;53.582;10.096;2023-08-07T04:47:54;12.82;;;3.05;;
73550;SDS011;61816;53.582;10.096;2023-08-07T04:50:19;15.63;;;3.50;;
73550;SDS011;61816;53.582;10.096;2023-08-07T04:52:44;10.48;;;3.30;;
73550;SDS011;61816;53.582;10.096;2023-08-07T04:55:10;9.90;;;3.75;;
73550;SDS011;61816;53.582;10.096;2023-08-07T04:57:35;14.50;;;3.30;;
73550;SDS011;61816;53.582;10.096;2023-08-07T05:00:00;14.05;;;3.00;;
73550;SDS011;61816;53.582;10.096;2023-08-07T05:02:26;12.40;;;3.53;;
73550;SDS011;61816;53.582;10.096;2023-08-07T05:04:51;10.57;;;3.30;;
73550;SDS011;61816;53.582;10.096;2023-08-07T05:07:16;12.40;;;3.10;;
73550;SDS011;61816;53.582;10.096;2023-08-07T05:09:42;10.02;;;3.67;;
73550;SDS011;61816;53.582;10.096;2023-08-07T05:12:07;10.18;;;3.00;;
73550;SDS011;61816;53.582;10.096;2023-08-07T05:14:33;9.32;;;2.75;;
73550;SDS011;61816;53.582;10.096;2023-08-07T05:16:58;18.98;;;3.53;;
73550;SDS011;61816;53.582;10.096;2023-08-07T05:19:26;21.48;;;4.32;;
73550;SDS011;61816;53.582;10.096;2023-08-07T05:21:51;17.27;;;3.65;;
73550;SDS011;61816;53.582;10.096;2023-08-07T05:24:17;12.27;;;3.42;;
73550;SDS011;61816;53.582;10.096;2023-08-07T05:26:43;10.10;;;3.03;;
73550;SDS011;61816;53.582;10.096;2023-08-07T05:29:09;14.93;;;4.35;;
73550;SDS011;61816;53.582;10.096;2023-08-07T05:31:34;17.73;;;3.83;;
73550;SDS011;61816;53.582;10.096;2023-08-07T05:34:00;12.77;;;3.35;;
73550;SDS011;61816;53.582;10.096;2023-08-07T05:36:25;14.20;;;3.53;;
73550;SDS011;61816;53.582;10.096;2023-08-07T05:38:50;9.70;;;3.75;;
73550;SDS011;61816;53.582;10.096;2023-08-07T05:41:16;11.63;;;2.95;;
73550;SDS011;61816;53.582;10.096;2023-08-07T05:43:41;14.98;;;3.22;;
73550;SDS011;61816;53.582;10.096;2023-08-07T05:46:07;16.20;;;3.95;;
73550;SDS011;61816;53.582;10.096;2023-08-07T05:48:32;13.23;;;3.25;;
73550;SDS011;61816;53.582;10.096;2023-08-07T05:50:57;12.68;;;3.20;;
73550;SDS011;61816;53.582;10.096;2023-08-07T05:53:23;7.65;;;3.38;;
73550;SDS011;61816;53.582;10.096;2023-08-07T05:55:48;16.50;;;3.03;;
73550;SDS011;61816;53.582;10.096;2023-08-07T05:58:13;13.30;;;3.05;;
73550;SDS011;61816;53.582;10.096;2023-08-07T06:00:39;15.82;;;3.63;;
73550;SDS011;61816;53.582;10.096;2023-08-07T06:03:04;24.50;;;4.32;;
73550;SDS011;61816;53.582;10.096;2023-08-07T06:05:29;11.20;;;2.70;;
73550;SDS011;61816;53.582;10.096;2023-08-07T06:07:55;15.43;;;3.50;;
73550;SDS011;61816;53.582;10.096;2023-08-07T06:10:20;15.75;;;3.00;;
73550;SDS011;61816;53.582;10.096;2023-08-07T06:12:45;17.55;;;3.50;;
73550;SDS011;61816;53.582;10.096;2023-08-07T06:15:11;17.02;;;3.28;;
73550;SDS011;61816;53.582;10.096;2023-08-07T06:17:36;30.00;;;3.95;;
73550;SDS011;61816;53.582;10.096;2023-08-07T06:20:04;16.58;;;3.17;;
73550;SDS011;61816;53.582;10.096;2023-08-07T06:22:32;20.88;;;3.85;;
73550;SDS011;61816;53.582;10.096;2023-08-07T06:24:57;18.23;;;4.20;;
73550;SDS011;61816;53.582;10.096;2023-08-07T06:27:23;20.90;;;3.95;;
73550;SDS011;61816;53.582;10.096;2023-08-07T06:29:48;16.40;;;3.47;;
73550;SDS011;61816;53.582;10.096;2023-08-07T06:32:13;22.23;;;3.50;;
73550;SDS011;61816;53.582;10.096;2023-08-07T06:34:39;14.35;;;3.55;;
73550;SDS011;61816;53.582;10.096;2023-08-07T06:37:05;30.77;;;4.40;;
73550;SDS011;61816;53.582;10.096;2023-08-07T06:39:30;19.98;;;4.15;;
73550;SDS011;61816;53.582;10.096;2023-08-07T06:41:56;23.08;;;4.35;;
73550;SDS011;61816;53.582;10.096;2023-08-07T06:44:21;21.05;;;4.32;;
73550;SDS011;61816;53.582;10.096;2023-08-07T06:46:47;22.67;;;4.70;;
73550;SDS011;61816;53.582;10.096;2023-08-07T06:49:12;21.90;;;5.32;;
73550;SDS011;61816;53.582;10.096;2023-08-07T06:51:37;27.95;;;4.82;;
73550;SDS011;61816;53.582;10.096;2023-08-07T06:54:03;24.45;;;5.45;;
73550;SDS011;61816;53.582;10.096;2023-08-07T06:56:29;20.20;;;4.97;;
73550;SDS011;61816;53.582;10.096;2023-08-07T06:58:54;31.67;;;4.70;;
73550;SDS011;61816;53.582;10.096;2023-08-07T07:01:20;27.35;;;4.80;;
73550;SDS011;61816;53.582;10.096;2023-08-07T07:03:45;26.15;;;4.53;;
73550;SDS011;61816;53.582;10.096;2023-08-07T07:06:12;26.50;;;4.50;;
73550;SDS011;61816;53.582;10.096;2023-08-07T07:08:38;23.02;;;4.35;;
73550;SDS011;61816;53.582;10.096;2023-08-07T07:11:03;22.10;;;4.47;;
73550;SDS011;61816;53.582;10.096;2023-08-07T07:13:29;21.95;;;4.13;;
73550;SDS011;61816;53.582;10.096;2023-08-07T07:15:58;25.83;;;4.05;;
73550;SDS011;61816;53.582;10.096;2023-08-07T07:18:23;33.67;;;4.47;;
73550;SDS011;61816;53.582;10.096;2023-08-07T07:20:55;27.20;;;4.93;;
73550;SDS011;61816;53.582;10.096;2023-08-07T07:23:22;35.03;;;5.10;;
73550;SDS011;61816;53.582;10.096;2023-08-07T07:25:47;21.48;;;5.43;;
73550;SDS011;61816;53.582;10.096;2023-08-07T07:28:13;19.38;;;4.15;;
73550;SDS011;61816;53.582;10.096;2023-08-07T07:30:39;31.63;;;5.15;;
73550;SDS011;61816;53.582;10.096;2023-08-07T07:33:04;14.80;;;3.88;;
73550;SDS011;61816;53.582;10.096;2023-08-07T07:35:30;21.33;;;5.40;;
73550;SDS011;61816;53.582;10.096;2023-08-07T07:37:55;18.65;;;4.20;;
73550;SDS011;61816;53.582;10.096;2023-08-07T07:40:21;22.60;;;4.90;;
73550;SDS011;61816;53.582;10.096;2023-08-07T07:42:46;24.70;;;5.10;;
73550;SDS011;61816;53.582;10.096;2023-08-07T07:45:11;33.47;;;5.07;;
73550;SDS011;61816;53.582;10.096;2023-08-07T07:47:37;24.85;;;4.68;;
73550;SDS011;61816;53.582;10.096;2023-08-07T07:50:06;27.95;;;5.45;;
73550;SDS011;61816;53.582;10.096;2023-08-07T07:52:33;20.23;;;5.20;;
73550;SDS011;61816;53.582;10.096;2023-08-07T07:54:59;24.38;;;4.15;;
73550;SDS011;61816;53.582;10.096;2023-08-07T07:57:24;27.27;;;5.07;;
73550;SDS011;61816;53.582;10.096;2023-08-07T07:59:52;29.08;;;5.32;;
73550;SDS011;61816;53.582;10.096;2023-08-07T08:02:18;20.63;;;5.05;;
73550;SDS011;61816;53.582;10.096;2023-08-07T08:04:43;26.58;;;4.63;;
73550;SDS011;61816;53.582;10.096;2023-08-07T08:07:08;21.55;;;5.20;;
73550;SDS011;61816;53.582;10.096;2023-08-07T08:09:34;33.15;;;5.35;;
73550;SDS011;61816;53.582;10.096;2023-08-07T08:11:59;24.17;;;5.65;;
73550;SDS011;61816;53.582;10.096;2023-08-07T08:14:24;22.42;;;4.90;;
73550;SDS011;61816;53.582;10.096;2023-08-07T08:16:50;23.50;;;5.43;;
73550;SDS011;61816;53.582;10.096;2023-08-07T08:19:15;26.63;;;4.90;;
73550;SDS011;61816;53.582;10.096;2023-08-07T08:21:41;30.13;;;5.93;;
73550;SDS011;61816;53.582;10.096;2023-08-07T08:24:07;20.42;;;4.97;;
73550;SDS011;61816;53.582;10.096;2023-08-07T08:26:32;25.80;;;5.35;;
73550;SDS011;61816;53.582;10.096;2023-08-07T08:28:58;25.38;;;5.18;;
73550;SDS011;61816;53.582;10.096;2023-08-07T08:31:23;25.33;;;5.80;;
73550;SDS011;61816;53.582;10.096;2023-08-07T08:33:49;23.33;;;5.53;;
73550;SDS011;61816;53.582;10.096;2023-08-07T08:36:14;28.20;;;4.70;;
73550;SDS011;61816;53.582;10.096;2023-08-07T08:38:40;30.55;;;5.40;;
73550;SDS011;61816;53.582;10.096;2023-08-07T08:41:05;28.23;;;5.28;;
73550;SDS011;61816;53.582;10.096;2023-08-07T08:43:34;23.23;;;4.57;;
73550;SDS011;61816;53.582;10.096;2023-08-07T08:46:06;25.35;;;5.13;;
73550;SDS011;61816;53.582;10.096;2023-08-07T08:48:36;29.85;;;7.50;;
73550;SDS011;61816;53.582;10.096;2023-08-07T08:51:03;34.75;;;5.53;;
73550;SDS011;61816;53.582;10.096;2023-08-07T08:53:29;34.67;;;5.60;;
73550;SDS011;61816;53.582;10.096;2023-08-07T08:55:55;24.65;;;5.72;;
73550;SDS011;61816;53.582;10.096;2023-08-07T08:58:21;31.35;;;5.72;;
73550;SDS011;61816;53.582;10.096;2023-08-07T09:00:48;27.33;;;5.40;;
73550;SDS011;61816;53.582;10.096;2023-08-07T09:03:14;31.90;;;5.88;;
73550;SDS011;61816;53.582;10.096;2023-08-07T09:05:40;25.20;;;6.60;;
73550;SDS011;61816;53.582;10.096;2023-08-07T09:08:06;25.40;;;5.35;;
73550;SDS011;61816;53.582;10.096;2023-08-07T09:10:33;24.88;;;5.03;;
73550;SDS011;61816;53.582;10.096;2023-08-07T09:13:00;33.20;;;6.45;;
73550;SDS011;61816;53.582;10.096;2023-08-07T09:15:29;29.88;;;5.50;;
73550;SDS011;61816;53.582;10.096;2023-08-07T09:17:56;34.72;;;5.95;;
73550;SDS011;61816;53.582;10.096;2023-08-07T09:20:23;28.70;;;4.97;;
73550;SDS011;61816;53.582;10.096;2023-08-07T09:22:49;20.85;;;4.63;;
73550;SDS011;61816;53.582;10.096;2023-08-07T09:25:14;24.88;;;5.13;;
73550;SDS011;61816;53.582;10.096;2023-08-07T09:27:52;24.15;;;4.30;;
73550;SDS011;61816;53.582;10.096;2023-08-07T09:30:19;28.27;;;5.57;;
73550;SDS011;61816;53.582;10.096;2023-08-07T09:32:46;26.17;;;4.72;;
73550;SDS011;61816;53.582;10.096;2023-08-07T09:35:12;29.10;;;4.50;;
73550;SDS011;61816;53.582;10.096;2023-08-07T09:37:58;23.67;;;4.75;;
73550;SDS011;61816;53.582;10.096;2023-08-07T09:40:23;24.08;;;5.20;;
73550;SDS011;61816;53.582;10.096;2023-08-07T09:42:52;23.48;;;5.43;;
73550;SDS011;61816;53.582;10.096;2023-08-07T09:45:25;34.50;;;4.32;;
73550;SDS011;61816;53.582;10.096;2023-08-07T09:48:05;16.45;;;4.95;;
73550;SDS011;61816;53.582;10.096;2023-08-07T09:50:36;22.33;;;5.30;;
73550;SDS011;61816;53.582;10.096;2023-08-07T09:53:01;15.00;;;4.63;;
73550;SDS011;61816;53.582;10.096;2023-08-07T09:55:27;20.67;;;4.03;;
73550;SDS011;61816;53.582;10.096;2023-08-07T09:57:53;21.73;;;3.70;;
73550;SDS011;61816;53.582;10.096;2023-08-07T10:00:18;21.42;;;4.60;;
73550;SDS011;61816;53.582;10.096;2023-08-07T10:02:48;29.58;;;4.68;;
73550;SDS011;61816;53.582;10.096;2023-08-07T10:05:15;21.10;;;4.75;;
73550;SDS011;61816;53.582;10.096;2023-08-07T10:07:40;18.48;;;4.75;;
73550;SDS011;61816;53.582;10.096;2023-08-07T10:10:07;21.63;;;6.22;;
73550;SDS011;61816;53.582;10.096;2023-08-07T10:12:34;11.57;;;3.88;;
73550;SDS011;61816;53.582;10.096;2023-08-07T10:15:01;14.57;;;4.10;;
73550;SDS011;61816;53.582;10.096;2023-08-07T10:17:28;16.77;;;4.10;;
73550;SDS011;61816;53.582;10.096;2023-08-07T10:19:54;27.23;;;5.65;;
73550;SDS011;61816;53.582;10.096;2023-08-07T10:22:23;26.13;;;4.65;;
73550;SDS011;61816;53.582;10.096;2023-08-07T10:24:51;24.65;;;4.13;;
73550;SDS011;61816;53.582;10.096;2023-08-07T10:27:19;21.10;;;4.13;;
73550;SDS011;61816;53.582;10.096;2023-08-07T10:29:46;24.40;;;4.95;;
73550;SDS011;61816;53.582;10.096;2023-08-07T10:32:14;20.42;;;4.72;;
73550;SDS011;61816;53.582;10.096;2023-08-07T10:34:41;16.20;;;3.90;;
73550;SDS011;61816;53.582;10.096;2023-08-07T10:37:31;21.88;;;4.50;;
73550;SDS011;61816;53.582;10.096;2023-08-07T10:40:18;19.88;;;4.80;;
73550;SDS011;61816;53.582;10.096;2023-08-07T10:45:23;29.02;;;5.40;;
73550;SDS011;61816;53.582;10.096;2023-08-07T10:48:02;20.02;;;4.57;;
73550;SDS011;61816;53.582;10.096;2023-08-07T10:50:34;22.30;;;4.57;;
73550;SDS011;61816;53.582;10.096;2023-08-07T10:53:01;22.20;;;4.63;;
73550;SDS011;61816;53.582;10.096;2023-08-07T10:55:45;21.88;;;4.70;;
73550;SDS011;61816;53.582;10.096;2023-08-07T11:03:53;20.85;;;4.43;;
73550;SDS011;61816;53.582;10.096;2023-08-07T11:06:30;21.00;;;4.90;;
73550;SDS011;61816;53.582;10.096;2023-08-07T11:08:57;27.80;;;5.53;;
73550;SDS011;61816;53.582;10.096;2023-08-07T11:11:28;17.35;;;4.28;;
73550;SDS011;61816;53.582;10.096;2023-08-07T11:13:54;15.50;;;4.13;;
73550;SDS011;61816;53.582;10.096;2023-08-07T11:16:19;23.60;;;3.83;;
73550;SDS011;61816;53.582;10.096;2023-08-07T11:18:46;18.63;;;3.88;;
73550;SDS011;61816;53.582;10.096;2023-08-07T11:21:12;21.83;;;3.92;;
73550;SDS011;61816;53.582;10.096;2023-08-07T11:23:38;23.60;;;4.50;;
73550;SDS011;61816;53.582;10.096;2023-08-07T11:26:04;19.38;;;3.78;;
73550;SDS011;61816;53.582;10.096;2023-08-07T11:28:30;22.38;;;4.30;;
73550;SDS011;61816;53.582;10.096;2023-08-07T11:30:56;18.77;;;3.25;;
73550;SDS011;61816;53.582;10.096;2023-08-07T11:33:25;16.60;;;3.70;;
73550;SDS011;61816;53.582;10.096;2023-08-07T11:35:52;22.45;;;4.30;;
73550;SDS011;61816;53.582;10.096;2023-08-07T11:41:07;22.05;;;3.60;;
73550;SDS011;61816;53.582;10.096;2023-08-07T11:43:34;13.57;;;2.92;;
73550;SDS011;61816;53.582;10.096;2023-08-07T11:46:03;20.30;;;3.90;;
73550;SDS011;61816;53.582;10.096;2023-08-07T11:48:30;26.52;;;3.70;;
73550;SDS011;61816;53.582;10.096;2023-08-07T11:50:58;17.73;;;3.40;;
73550;SDS011;61816;53.582;10.096;2023-08-07T11:53:24;21.52;;;4.53;;
73550;SDS011;61816;53.582;10.096;2023-08-07T11:55:52;18.90;;;4.45;;
73550;SDS011;61816;53.582;10.096;2023-08-07T11:58:27;11.77;;;3.60;;
73550;SDS011;61816;53.582;10.096;2023-08-07T12:01:01;11.57;;;3.00;;
73550;SDS011;61816;53.582;10.096;2023-08-07T12:03:30;11.52;;;2.30;;
73550;SDS011;61816;53.582;10.096;2023-08-07T12:05:58;19.95;;;3.97;;
73550;SDS011;61816;53.582;10.096;2023-08-07T12:11:00;15.85;;;3.47;;
73550;SDS011;61816;53.582;10.096;2023-08-07T12:13:28;12.55;;;3.15;;
73550;SDS011;61816;53.582;10.096;2023-08-07T12:15:54;17.08;;;4.47;;
73550;SDS011;61816;53.582;10.096;2023-08-07T12:18:21;20.42;;;5.82;;
73550;SDS011;61816;53.582;10.096;2023-08-07T12:20:48;13.38;;;3.28;;
73550;SDS011;61816;53.582;10.096;2023-08-07T12:23:17;18.92;;;3.20;;
73550;SDS011;61816;53.582;10.096;2023-08-07T12:25:45;14.75;;;3.72;;
73550;SDS011;61816;53.582;10.096;2023-08-07T12:28:11;14.48;;;3.78;;
73550;SDS011;61816;53.582;10.096;2023-08-07T12:30:37;16.83;;;3.88;;
73550;SDS011;61816;53.582;10.096;2023-08-07T12:33:03;15.68;;;2.97;;
73550;SDS011;61816;53.582;10.096;2023-08-07T12:35:32;8.10;;;2.97;;
73550;SDS011;61816;53.582;10.096;2023-08-07T12:37:57;11.80;;;3.65;;
73550;SDS011;61816;53.582;10.096;2023-08-07T12:40:23;12.07;;;3.40;;
73550;SDS011;61816;53.582;10.096;2023-08-07T12:42:49;15.05;;;4.18;;
73550;SDS011;61816;53.582;10.096;2023-08-07T12:45:15;17.20;;;4.05;;
73550;SDS011;61816;53.582;10.096;2023-08-07T12:47:41;22.20;;;4.25;;
73550;SDS011;61816;53.582;10.096;2023-08-07T12:50:07;18.98;;;4.68;;
73550;SDS011;61816;53.582;10.096;2023-08-07T12:52:33;23.35;;;5.43;;
73550;SDS011;61816;53.582;10.096;2023-08-07T12:54:59;26.58;;;5.28;;
73550;SDS011;61816;53.582;10.096;2023-08-07T12:57:25;25.55;;;4.57;;
73550;SDS011;61816;53.582;10.096;2023-08-07T12:59:51;17.60;;;4.38;;
73550;SDS011;61816;53.582;10.096;2023-08-07T13:02:16;15.20;;;3.50;;
73550;SDS011;61816;53.582;10.096;2023-08-07T13:04:41;29.95;;;4.40;;
73550;SDS011;61816;53.582;10.096;2023-08-07T13:07:07;14.80;;;3.60;;
73550;SDS011;61816;53.582;10.096;2023-08-07T13:09:32;14.27;;;4.15;;
73550;SDS011;61816;53.582;10.096;2023-08-07T13:11:58;14.20;;;3.40;;
73550;SDS011;61816;53.582;10.096;2023-08-07T13:14:23;14.20;;;3.38;;
73550;SDS011;61816;53.582;10.096;2023-08-07T13:16:49;17.65;;;4.10;;
73550;SDS011;61816;53.582;10.096;2023-08-07T13:19:14;25.02;;;4.38;;
73550;SDS011;61816;53.582;10.096;2023-08-07T13:21:40;13.45;;;3.50;;
73550;SDS011;61816;53.582;10.096;2023-08-07T13:24:05;14.63;;;3.63;;
73550;SDS011;61816;53.582;10.096;2023-08-07T13:26:30;16.25;;;4.20;;
73550;SDS011;61816;53.582;10.096;2023-08-07T13:28:56;19.17;;;4.07;;
73550;SDS011;61816;53.582;10.096;2023-08-07T13:31:21;18.58;;;3.17;;
73550;SDS011;61816;53.582;10.096;2023-08-07T13:33:47;18.75;;;4.20;;
73550;SDS011;61816;53.582;10.096;2023-08-07T13:36:12;23.02;;;3.78;;
73550;SDS011;61816;53.582;10.096;2023-08-07T13:38:38;27.08;;;4.90;;
73550;SDS011;61816;53.582;10.096;2023-08-07T13:41:03;17.38;;;4.70;;
73550;SDS011;61816;53.582;10.096;2023-08-07T13:43:29;20.63;;;3.95;;
73550;SDS011;61816;53.582;10.096;2023-08-07T13:45:54;19.40;;;4.38;;
73550;SDS011;61816;53.582;10.096;2023-08-07T13:48:20;22.25;;;4.90;;
73550;SDS011;61816;53.582;10.096;2023-08-07T13:50:46;23.45;;;4.28;;
73550;SDS011;61816;53.582;10.096;2023-08-07T13:53:12;21.45;;;4.38;;
73550;SDS011;61816;53.582;10.096;2023-08-07T13:55:38;20.27;;;4.85;;
73550;SDS011;61816;53.582;10.096;2023-08-07T13:58:03;29.25;;;4.03;;
73550;SDS011;61816;53.582;10.096;2023-08-07T14:00:29;31.38;;;5.68;;
73550;SDS011;61816;53.582;10.096;2023-08-07T14:02:55;20.80;;;5.93;;
73550;SDS011;61816;53.582;10.096;2023-08-07T14:05:20;22.33;;;4.03;;
73550;SDS011;61816;53.582;10.096;2023-08-07T14:07:46;22.83;;;3.75;;
73550;SDS011;61816;53.582;10.096;2023-08-07T14:10:11;26.75;;;4.53;;
73550;SDS011;61816;53.582;10.096;2023-08-07T14:12:36;26.25;;;4.88;;
73550;SDS011;61816;53.582;10.096;2023-08-07T14:15:02;25.52;;;4.72;;
73550;SDS011;61816;53.582;10.096;2023-08-07T14:17:28;22.83;;;5.30;;
73550;SDS011;61816;53.582;10.096;2023-08-07T14:19:53;37.03;;;5.82;;
73550;SDS011;61816;53.582;10.096;2023-08-07T14:22:18;21.38;;;4.50;;
73550;SDS011;61816;53.582;10.096;2023-08-07T14:24:44;23.73;;;4.38;;
73550;SDS011;61816;53.582;10.096;2023-08-07T14:27:09;33.15;;;4.88;;
73550;SDS011;61816;53.582;10.096;2023-08-07T14:29:34;24.88;;;4.65;;
73550;SDS011;61816;53.582;10.096;2023-08-07T14:32:00;19.98;;;4.40;;
73550;SDS011;61816;53.582;10.096;2023-08-07T14:34:25;22.40;;;5.00;;
73550;SDS011;61816;53.582;10.096;2023-08-07T14:36:50;27.35;;;5.25;;
73550;SDS011;61816;53.582;10.096;2023-08-07T14:39:17;20.60;;;4.93;;
73550;SDS011;61816;53.582;10.096;2023-08-07T14:41:42;30.75;;;5.57;;